sensor_id;sensor_type;location;lat;lon;timestamp;P1;durP1;ratioP1;P2;durP2;ratioP2
12048;SDS011;6085;49.452;8.502;2022-09-03T00:02:37;1.45;;;0.90;;
12048;SDS011;6085;49.452;8.502;2022-09-03T00:06:44;0.75;;;0.75;;
12048;SDS011;6085;49.452;8.502;2022-09-03T00:10:52;3.00;;;1.10;;
12048;SDS011;6085;49.452;8.502;2022-09-03T00:14:59;3.08;;;0.90;;
12048;SDS011;6085;49.452;8.502;2022-09-03T00:19:05;1.55;;;1.08;;
12048;SDS011;6085;49.452;8.502;2022-09-03T00:23:08;1.50;;;0.93;;
12048;SDS011;6085;49.452;8.502;2022-09-03T00:27:16;0.90;;;0.90;;
12048;SDS011;6085;49.452;8.502;2022-09-03T00:31:23;1.67;;;1.00;;
12048;SDS011;6085;49.452;8.502;2022-09-03T00:35:29;1.02;;;0.95;;
12048;SDS011;6085;49.452;8.502;2022-09-03T00:39:35;1.58;;;1.02;;
12048;SDS011;6085;49.452;8.502;2022-09-03T00:43:44;0.85;;;0.85;;
12048;SDS011;6085;49.452;8.502;2022-09-03T00:47:59;1.90;;;1.10;;
12048;SDS011;6085;49.452;8.502;2022-09-03T00:52:12;1.63;;;0.95;;
12048;SDS011;6085;49.452;8.502;2022-09-03T00:56:25;1.23;;;1.00;;
12048;SDS011;6085;49.452;8.502;2022-09-03T01:00:35;1.10;;;1.00;;
12048;SDS011;6085;49.452;8.502;2022-09-03T01:04:41;0.95;;;0.95;;
12048;SDS011;6085;49.452;8.502;2022-09-03T01:08:59;1.75;;;1.17;;
12048;SDS011;6085;49.452;8.502;2022-09-03T01:13:12;0.95;;;0.95;;
12048;SDS011;6085;49.452;8.502;2022-09-03T01:17:22;1.77;;;1.00;;
12048;SDS011;6085;49.452;8.502;2022-09-03T01:21:38;1.58;;;0.98;;
12048;SDS011;6085;49.452;8.502;2022-09-03T01:25:57;1.00;;;1.00;;
12048;SDS011;6085;49.452;8.502;2022-09-03T01:30:15;0.70;;;0.70;;
12048;SDS011;6085;49.452;8.502;2022-09-03T01:34:21;1.60;;;1.20;;
12048;SDS011;6085;49.452;8.502;2022-09-03T01:38:31;1.73;;;1.27;;
12048;SDS011;6085;49.452;8.502;2022-09-03T01:42:42;1.35;;;1.25;;
12048;SDS011;6085;49.452;8.502;2022-09-03T01:46:56;1.20;;;1.10;;
12048;SDS011;6085;49.452;8.502;2022-09-03T01:51:10;1.05;;;0.95;;
12048;SDS011;6085;49.452;8.502;2022-09-03T01:55:23;0.90;;;0.90;;
12048;SDS011;6085;49.452;8.502;2022-09-03T01:59:32;0.90;;;0.90;;
12048;SDS011;6085;49.452;8.502;2022-09-03T02:03:40;1.10;;;1.00;;
12048;SDS011;6085;49.452;8.502;2022-09-03T02:07:45;0.98;;;0.90;;
12048;SDS011;6085;49.452;8.502;2022-09-03T02:11:48;0.90;;;0.90;;
12048;SDS011;6085;49.452;8.502;2022-09-03T02:15:57;1.73;;;0.98;;
12048;SDS011;6085;49.452;8.502;2022-09-03T02:20:04;1.05;;;0.95;;
12048;SDS011;6085;49.452;8.502;2022-09-03T02:24:10;1.40;;;1.30;;
12048;SDS011;6085;49.452;8.502;2022-09-03T02:28:13;1.70;;;1.60;;
12048;SDS011;6085;49.452;8.502;2022-09-03T02:32:15;1.90;;;1.80;;
12048;SDS011;6085;49.452;8.502;2022-09-03T02:36:19;1.55;;;1.45;;
12048;SDS011;6085;49.452;8.502;2022-09-03T02:40:24;1.40;;;1.30;;
12048;SDS011;6085;49.452;8.502;2022-09-03T02:44:27;2.47;;;1.30;;
12048;SDS011;6085;49.452;8.502;2022-09-03T02:48:31;1.10;;;0.95;;
12048;SDS011;6085;49.452;8.502;2022-09-03T02:52:34;1.10;;;1.00;;
12048;SDS011;6085;49.452;8.502;2022-09-03T02:56:36;1.60;;;1.50;;
12048;SDS011;6085;49.452;8.502;2022-09-03T03:00:38;2.17;;;2.08;;
12048;SDS011;6085;49.452;8.502;2022-09-03T03:04:40;1.90;;;1.80;;
12048;SDS011;6085;49.452;8.502;2022-09-03T03:08:44;1.80;;;1.70;;
12048;SDS011;6085;49.452;8.502;2022-09-03T03:12:46;1.88;;;1.77;;
12048;SDS011;6085;49.452;8.502;2022-09-03T03:16:48;1.90;;;1.80;;
12048;SDS011;6085;49.452;8.502;2022-09-03T03:20:50;2.50;;;2.30;;
12048;SDS011;6085;49.452;8.502;2022-09-03T03:24:53;3.22;;;2.10;;
12048;SDS011;6085;49.452;8.502;2022-09-03T03:28:57;3.38;;;1.60;;
12048;SDS011;6085;49.452;8.502;2022-09-03T03:33:00;1.30;;;1.20;;
12048;SDS011;6085;49.452;8.502;2022-09-03T03:37:03;2.72;;;1.15;;
12048;SDS011;6085;49.452;8.502;2022-09-03T03:41:07;1.40;;;1.10;;
12048;SDS011;6085;49.452;8.502;2022-09-03T03:45:10;1.30;;;1.00;;
12048;SDS011;6085;49.452;8.502;2022-09-03T03:49:12;1.10;;;1.00;;
12048;SDS011;6085;49.452;8.502;2022-09-03T03:53:14;0.80;;;0.80;;
12048;SDS011;6085;49.452;8.502;2022-09-03T03:57:17;1.38;;;0.93;;
12048;SDS011;6085;49.452;8.502;2022-09-03T04:01:20;0.90;;;0.90;;
12048;SDS011;6085;49.452;8.502;2022-09-03T04:05:23;1.13;;;0.98;;
12048;SDS011;6085;49.452;8.502;2022-09-03T04:09:25;1.63;;;1.20;;
12048;SDS011;6085;49.452;8.502;2022-09-03T04:13:29;1.40;;;0.88;;
12048;SDS011;6085;49.452;8.502;2022-09-03T04:17:31;0.90;;;0.90;;
12048;SDS011;6085;49.452;8.502;2022-09-03T04:21:33;1.60;;;1.20;;
12048;SDS011;6085;49.452;8.502;2022-09-03T04:25:35;3.05;;;1.10;;
12048;SDS011;6085;49.452;8.502;2022-09-03T04:29:40;1.85;;;1.75;;
12048;SDS011;6085;49.452;8.502;2022-09-03T04:33:41;2.47;;;2.20;;
12048;SDS011;6085;49.452;8.502;2022-09-03T04:37:44;1.40;;;1.40;;
12048;SDS011;6085;49.452;8.502;2022-09-03T04:41:45;1.52;;;1.42;;
12048;SDS011;6085;49.452;8.502;2022-09-03T04:45:49;1.70;;;1.40;;
12048;SDS011;6085;49.452;8.502;2022-09-03T04:49:51;1.65;;;1.50;;
12048;SDS011;6085;49.452;8.502;2022-09-03T04:53:54;2.70;;;2.35;;
12048;SDS011;6085;49.452;8.502;2022-09-03T04:57:57;2.25;;;2.15;;
12048;SDS011;6085;49.452;8.502;2022-09-03T05:02:01;2.60;;;1.88;;
12048;SDS011;6085;49.452;8.502;2022-09-03T05:06:03;2.78;;;2.00;;
12048;SDS011;6085;49.452;8.502;2022-09-03T05:10:07;2.72;;;2.33;;
12048;SDS011;6085;49.452;8.502;2022-09-03T05:14:12;2.78;;;2.53;;
12048;SDS011;6085;49.452;8.502;2022-09-03T05:18:15;2.63;;;2.28;;
12048;SDS011;6085;49.452;8.502;2022-09-03T05:22:17;2.17;;;1.90;;
12048;SDS011;6085;49.452;8.502;2022-09-03T05:26:22;1.60;;;1.50;;
12048;SDS011;6085;49.452;8.502;2022-09-03T05:30:26;1.63;;;1.25;;
12048;SDS011;6085;49.452;8.502;2022-09-03T05:34:30;2.05;;;1.48;;
12048;SDS011;6085;49.452;8.502;2022-09-03T05:38:32;1.23;;;1.20;;
12048;SDS011;6085;49.452;8.502;2022-09-03T05:42:34;1.10;;;1.10;;
12048;SDS011;6085;49.452;8.502;2022-09-03T05:46:36;2.72;;;1.38;;
12048;SDS011;6085;49.452;8.502;2022-09-03T05:50:40;1.38;;;1.25;;
12048;SDS011;6085;49.452;8.502;2022-09-03T05:54:42;1.00;;;1.00;;
12048;SDS011;6085;49.452;8.502;2022-09-03T05:58:44;1.08;;;1.08;;
12048;SDS011;6085;49.452;8.502;2022-09-03T06:02:48;1.73;;;1.33;;
12048;SDS011;6085;49.452;8.502;2022-09-03T06:06:52;1.50;;;1.40;;
12048;SDS011;6085;49.452;8.502;2022-09-03T06:10:56;1.20;;;1.20;;
12048;SDS011;6085;49.452;8.502;2022-09-03T06:14:58;1.30;;;1.00;;
12048;SDS011;6085;49.452;8.502;2022-09-03T06:19:00;1.30;;;1.20;;
12048;SDS011;6085;49.452;8.502;2022-09-03T06:23:04;1.48;;;1.25;;
12048;SDS011;6085;49.452;8.502;2022-09-03T06:27:06;1.30;;;1.20;;
12048;SDS011;6085;49.452;8.502;2022-09-03T06:31:09;1.83;;;1.30;;
12048;SDS011;6085;49.452;8.502;2022-09-03T06:35:12;2.35;;;1.75;;
12048;SDS011;6085;49.452;8.502;2022-09-03T06:39:16;1.50;;;1.40;;
12048;SDS011;6085;49.452;8.502;2022-09-03T06:43:18;1.77;;;1.67;;
12048;SDS011;6085;49.452;8.502;2022-09-03T06:47:20;2.17;;;1.70;;
12048;SDS011;6085;49.452;8.502;2022-09-03T06:51:23;1.90;;;1.80;;
12048;SDS011;6085;49.452;8.502;2022-09-03T06:55:27;2.00;;;1.90;;
12048;SDS011;6085;49.452;8.502;2022-09-03T06:59:29;2.67;;;2.40;;
12048;SDS011;6085;49.452;8.502;2022-09-03T07:03:32;3.92;;;3.20;;
12048;SDS011;6085;49.452;8.502;2022-09-03T07:07:34;5.45;;;4.03;;
12048;SDS011;6085;49.452;8.502;2022-09-03T07:11:38;4.30;;;3.90;;
12048;SDS011;6085;49.452;8.502;2022-09-03T07:15:45;4.18;;;3.83;;
12048;SDS011;6085;49.452;8.502;2022-09-03T07:19:47;4.25;;;3.75;;
12048;SDS011;6085;49.452;8.502;2022-09-03T07:23:49;3.47;;;3.17;;
12048;SDS011;6085;49.452;8.502;2022-09-03T07:27:53;3.47;;;2.80;;
12048;SDS011;6085;49.452;8.502;2022-09-03T07:31:56;3.85;;;3.20;;
12048;SDS011;6085;49.452;8.502;2022-09-03T07:36:00;3.90;;;3.20;;
12048;SDS011;6085;49.452;8.502;2022-09-03T07:40:03;4.22;;;3.08;;
12048;SDS011;6085;49.452;8.502;2022-09-03T07:44:07;3.45;;;3.20;;
12048;SDS011;6085;49.452;8.502;2022-09-03T07:48:09;3.50;;;3.20;;
12048;SDS011;6085;49.452;8.502;2022-09-03T07:52:11;3.55;;;3.30;;
12048;SDS011;6085;49.452;8.502;2022-09-03T07:56:13;4.35;;;3.95;;
12048;SDS011;6085;49.452;8.502;2022-09-03T08:00:17;5.20;;;4.70;;
12048;SDS011;6085;49.452;8.502;2022-09-03T08:04:19;6.97;;;5.10;;
12048;SDS011;6085;49.452;8.502;2022-09-03T08:08:22;6.65;;;5.43;;
12048;SDS011;6085;49.452;8.502;2022-09-03T08:12:23;6.50;;;4.70;;
12048;SDS011;6085;49.452;8.502;2022-09-03T08:16:28;6.07;;;4.55;;
12048;SDS011;6085;49.452;8.502;2022-09-03T08:20:35;5.22;;;4.53;;
12048;SDS011;6085;49.452;8.502;2022-09-03T08:24:40;4.95;;;4.50;;
12048;SDS011;6085;49.452;8.502;2022-09-03T08:28:43;4.85;;;4.03;;
12048;SDS011;6085;49.452;8.502;2022-09-03T08:32:46;4.72;;;4.22;;
12048;SDS011;6085;49.452;8.502;2022-09-03T08:36:48;5.10;;;4.38;;
12048;SDS011;6085;49.452;8.502;2022-09-03T08:40:53;4.70;;;4.30;;
12048;SDS011;6085;49.452;8.502;2022-09-03T08:45:04;6.00;;;5.40;;
12048;SDS011;6085;49.452;8.502;2022-09-03T08:49:17;8.82;;;5.55;;
12048;SDS011;6085;49.452;8.502;2022-09-03T08:53:25;6.65;;;5.13;;
12048;SDS011;6085;49.452;8.502;2022-09-03T08:57:35;4.80;;;4.35;;
12048;SDS011;6085;49.452;8.502;2022-09-03T09:01:46;7.25;;;4.88;;
12048;SDS011;6085;49.452;8.502;2022-09-03T09:05:59;5.55;;;5.05;;
12048;SDS011;6085;49.452;8.502;2022-09-03T09:10:09;5.28;;;4.82;;
12048;SDS011;6085;49.452;8.502;2022-09-03T09:14:17;5.10;;;4.65;;
12048;SDS011;6085;49.452;8.502;2022-09-03T09:18:22;6.43;;;4.40;;
12048;SDS011;6085;49.452;8.502;2022-09-03T09:22:37;5.07;;;4.68;;
12048;SDS011;6085;49.452;8.502;2022-09-03T09:26:41;5.75;;;5.25;;
12048;SDS011;6085;49.452;8.502;2022-09-03T09:30:45;4.15;;;3.85;;
12048;SDS011;6085;49.452;8.502;2022-09-03T09:34:48;4.03;;;3.60;;
12048;SDS011;6085;49.452;8.502;2022-09-03T09:38:53;2.92;;;2.70;;
12048;SDS011;6085;49.452;8.502;2022-09-03T09:43:05;2.63;;;2.42;;
12048;SDS011;6085;49.452;8.502;2022-09-03T09:47:11;3.13;;;2.83;;
12048;SDS011;6085;49.452;8.502;2022-09-03T09:51:17;3.10;;;2.80;;
12048;SDS011;6085;49.452;8.502;2022-09-03T09:55:22;2.92;;;2.72;;
12048;SDS011;6085;49.452;8.502;2022-09-03T09:59:25;3.03;;;2.58;;
12048;SDS011;6085;49.452;8.502;2022-09-03T10:03:28;2.53;;;2.33;;
12048;SDS011;6085;49.452;8.502;2022-09-03T10:07:34;2.97;;;2.70;;
12048;SDS011;6085;49.452;8.502;2022-09-03T10:11:37;3.72;;;3.40;;
12048;SDS011;6085;49.452;8.502;2022-09-03T10:15:43;3.20;;;2.90;;
12048;SDS011;6085;49.452;8.502;2022-09-03T10:19:53;3.22;;;2.92;;
12048;SDS011;6085;49.452;8.502;2022-09-03T10:24:23;3.25;;;2.95;;
12048;SDS011;6085;49.452;8.502;2022-09-03T10:28:36;2.45;;;2.28;;
12048;SDS011;6085;49.452;8.502;2022-09-03T10:32:41;2.75;;;2.55;;
12048;SDS011;6085;49.452;8.502;2022-09-03T10:36:50;2.53;;;2.30;;
12048;SDS011;6085;49.452;8.502;2022-09-03T10:41:02;2.70;;;2.50;;
12048;SDS011;6085;49.452;8.502;2022-09-03T10:45:22;2.60;;;2.40;;
12048;SDS011;6085;49.452;8.502;2022-09-03T10:49:38;2.42;;;2.22;;
12048;SDS011;6085;49.452;8.502;2022-09-03T10:53:54;2.40;;;2.20;;
12048;SDS011;6085;49.452;8.502;2022-09-03T10:58:24;3.15;;;2.30;;
12048;SDS011;6085;49.452;8.502;2022-09-03T11:03:10;2.45;;;2.35;;
12048;SDS011;6085;49.452;8.502;2022-09-03T11:07:35;2.67;;;2.47;;
12048;SDS011;6085;49.452;8.502;2022-09-03T11:11:43;2.65;;;2.45;;
12048;SDS011;6085;49.452;8.502;2022-09-03T11:15:48;3.10;;;2.80;;
12048;SDS011;6085;49.452;8.502;2022-09-03T11:19:55;2.78;;;2.58;;
12048;SDS011;6085;49.452;8.502;2022-09-03T11:24:06;2.78;;;2.50;;
12048;SDS011;6085;49.452;8.502;2022-09-03T11:28:15;2.35;;;2.25;;
12048;SDS011;6085;49.452;8.502;2022-09-03T11:32:29;2.20;;;2.10;;
12048;SDS011;6085;49.452;8.502;2022-09-03T11:36:42;2.22;;;2.13;;
12048;SDS011;6085;49.452;8.502;2022-09-03T11:40:54;2.10;;;1.88;;
12048;SDS011;6085;49.452;8.502;2022-09-03T11:45:10;1.73;;;1.63;;
12048;SDS011;6085;49.452;8.502;2022-09-03T11:49:26;1.23;;;1.23;;
12048;SDS011;6085;49.452;8.502;2022-09-03T11:53:34;1.13;;;1.13;;
12048;SDS011;6085;49.452;8.502;2022-09-03T11:57:38;1.15;;;1.15;;
12048;SDS011;6085;49.452;8.502;2022-09-03T12:01:43;2.13;;;1.48;;
12048;SDS011;6085;49.452;8.502;2022-09-03T12:05:56;1.30;;;1.20;;
12048;SDS011;6085;49.452;8.502;2022-09-03T12:14:45;0.77;;;0.77;;
12048;SDS011;6085;49.452;8.502;2022-09-03T12:18:59;4.68;;;2.80;;
12048;SDS011;6085;49.452;8.502;2022-09-03T12:23:10;1.33;;;1.20;;
12048;SDS011;6085;49.452;8.502;2022-09-03T12:27:31;1.40;;;1.30;;
12048;SDS011;6085;49.452;8.502;2022-09-03T12:31:42;0.80;;;0.80;;
12048;SDS011;6085;49.452;8.502;2022-09-03T12:35:54;0.80;;;0.77;;
12048;SDS011;6085;49.452;8.502;2022-09-03T12:39:57;1.00;;;1.00;;
12048;SDS011;6085;49.452;8.502;2022-09-03T12:44:00;1.20;;;1.10;;
12048;SDS011;6085;49.452;8.502;2022-09-03T12:48:04;1.20;;;1.20;;
12048;SDS011;6085;49.452;8.502;2022-09-03T12:52:16;1.00;;;1.00;;
12048;SDS011;6085;49.452;8.502;2022-09-03T12:56:21;1.63;;;1.50;;
12048;SDS011;6085;49.452;8.502;2022-09-03T13:00:24;1.70;;;1.60;;
12048;SDS011;6085;49.452;8.502;2022-09-03T13:04:29;1.70;;;1.60;;
12048;SDS011;6085;49.452;8.502;2022-09-03T13:08:36;1.60;;;1.50;;
12048;SDS011;6085;49.452;8.502;2022-09-03T13:12:42;1.90;;;1.80;;
12048;SDS011;6085;49.452;8.502;2022-09-03T13:21:28;2.08;;;1.98;;
12048;SDS011;6085;49.452;8.502;2022-09-03T13:25:37;2.30;;;2.10;;
12048;SDS011;6085;49.452;8.502;2022-09-03T13:30:02;2.33;;;2.22;;
12048;SDS011;6085;49.452;8.502;2022-09-03T13:34:10;2.20;;;2.10;;
12048;SDS011;6085;49.452;8.502;2022-09-03T13:38:22;2.50;;;2.30;;
12048;SDS011;6085;49.452;8.502;2022-09-03T13:42:32;2.75;;;2.40;;
12048;SDS011;6085;49.452;8.502;2022-09-03T13:46:40;3.03;;;2.65;;
12048;SDS011;6085;49.452;8.502;2022-09-03T13:50:47;2.97;;;2.70;;
12048;SDS011;6085;49.452;8.502;2022-09-03T13:54:54;2.75;;;2.55;;
12048;SDS011;6085;49.452;8.502;2022-09-03T13:59:03;2.80;;;2.60;;
12048;SDS011;6085;49.452;8.502;2022-09-03T14:03:11;2.70;;;2.50;;
12048;SDS011;6085;49.452;8.502;2022-09-03T14:07:20;3.13;;;2.80;;
12048;SDS011;6085;49.452;8.502;2022-09-03T14:11:29;3.10;;;2.90;;
12048;SDS011;6085;49.452;8.502;2022-09-03T14:15:35;4.68;;;3.03;;
12048;SDS011;6085;49.452;8.502;2022-09-03T14:19:45;2.80;;;2.60;;
12048;SDS011;6085;49.452;8.502;2022-09-03T14:23:58;2.90;;;2.70;;
12048;SDS011;6085;49.452;8.502;2022-09-03T14:28:11;3.47;;;2.83;;
12048;SDS011;6085;49.452;8.502;2022-09-03T14:32:21;2.65;;;2.45;;
12048;SDS011;6085;49.452;8.502;2022-09-03T14:36:30;2.67;;;2.47;;
12048;SDS011;6085;49.452;8.502;2022-09-03T14:40:41;2.63;;;2.53;;
12048;SDS011;6085;49.452;8.502;2022-09-03T14:44:58;3.03;;;2.83;;
12048;SDS011;6085;49.452;8.502;2022-09-03T14:58:32;3.00;;;2.80;;
12048;SDS011;6085;49.452;8.502;2022-09-03T15:03:02;2.90;;;2.70;;
12048;SDS011;6085;49.452;8.502;2022-09-03T15:07:22;2.65;;;2.55;;
12048;SDS011;6085;49.452;8.502;2022-09-03T15:11:32;3.10;;;2.90;;
12048;SDS011;6085;49.452;8.502;2022-09-03T15:15:48;2.90;;;2.70;;
12048;SDS011;6085;49.452;8.502;2022-09-03T15:20:02;3.10;;;2.80;;
12048;SDS011;6085;49.452;8.502;2022-09-03T15:24:17;3.38;;;2.90;;
12048;SDS011;6085;49.452;8.502;2022-09-03T15:28:29;3.20;;;2.90;;
12048;SDS011;6085;49.452;8.502;2022-09-03T15:32:42;2.30;;;2.10;;
12048;SDS011;6085;49.452;8.502;2022-09-03T15:36:51;2.00;;;1.83;;
12048;SDS011;6085;49.452;8.502;2022-09-03T15:40:55;1.77;;;1.67;;
12048;SDS011;6085;49.452;8.502;2022-09-03T15:45:02;1.90;;;1.80;;
12048;SDS011;6085;49.452;8.502;2022-09-03T15:49:15;2.03;;;1.92;;
12048;SDS011;6085;49.452;8.502;2022-09-03T15:53:35;1.83;;;1.73;;
12048;SDS011;6085;49.452;8.502;2022-09-03T15:57:44;2.85;;;2.40;;
12048;SDS011;6085;49.452;8.502;2022-09-03T16:01:53;2.10;;;1.90;;
12048;SDS011;6085;49.452;8.502;2022-09-03T16:06:06;2.75;;;2.20;;
12048;SDS011;6085;49.452;8.502;2022-09-03T16:10:20;2.25;;;2.05;;
12048;SDS011;6085;49.452;8.502;2022-09-03T16:14:34;3.40;;;2.80;;
12048;SDS011;6085;49.452;8.502;2022-09-03T16:18:41;3.20;;;2.90;;
12048;SDS011;6085;49.452;8.502;2022-09-03T16:22:50;2.70;;;2.50;;
12048;SDS011;6085;49.452;8.502;2022-09-03T16:26:59;3.35;;;3.05;;
12048;SDS011;6085;49.452;8.502;2022-09-03T16:31:10;3.65;;;3.08;;
12048;SDS011;6085;49.452;8.502;2022-09-03T16:35:20;3.10;;;2.80;;
12048;SDS011;6085;49.452;8.502;2022-09-03T16:39:32;2.95;;;2.75;;
12048;SDS011;6085;49.452;8.502;2022-09-03T16:43:50;3.00;;;2.80;;
12048;SDS011;6085;49.452;8.502;2022-09-03T16:48:07;3.70;;;3.28;;
12048;SDS011;6085;49.452;8.502;2022-09-03T16:52:20;2.92;;;2.72;;
12048;SDS011;6085;49.452;8.502;2022-09-03T16:56:36;3.22;;;2.92;;
12048;SDS011;6085;49.452;8.502;2022-09-03T17:00:53;4.32;;;3.35;;
12048;SDS011;6085;49.452;8.502;2022-09-03T17:05:12;3.67;;;3.15;;
12048;SDS011;6085;49.452;8.502;2022-09-03T17:09:42;3.15;;;2.95;;
12048;SDS011;6085;49.452;8.502;2022-09-03T17:13:57;3.45;;;3.15;;
12048;SDS011;6085;49.452;8.502;2022-09-03T17:18:25;9.02;;;8.10;;
12048;SDS011;6085;49.452;8.502;2022-09-03T17:22:38;6.40;;;5.80;;
12048;SDS011;6085;49.452;8.502;2022-09-03T17:26:52;5.63;;;5.13;;
12048;SDS011;6085;49.452;8.502;2022-09-03T17:31:03;3.80;;;3.42;;
12048;SDS011;6085;49.452;8.502;2022-09-03T17:35:15;4.03;;;3.53;;
12048;SDS011;6085;49.452;8.502;2022-09-03T17:39:30;3.50;;;3.20;;
12048;SDS011;6085;49.452;8.502;2022-09-03T17:43:48;4.60;;;3.30;;
12048;SDS011;6085;49.452;8.502;2022-09-03T17:48:05;3.70;;;3.40;;
12048;SDS011;6085;49.452;8.502;2022-09-03T17:52:19;4.60;;;3.55;;
12048;SDS011;6085;49.452;8.502;2022-09-03T17:56:27;4.20;;;3.78;;
12048;SDS011;6085;49.452;8.502;2022-09-03T18:00:35;3.90;;;3.60;;
12048;SDS011;6085;49.452;8.502;2022-09-03T18:04:47;5.13;;;4.07;;
12048;SDS011;6085;49.452;8.502;2022-09-03T18:08:55;4.25;;;3.85;;
12048;SDS011;6085;49.452;8.502;2022-09-03T18:13:02;3.85;;;3.55;;
12048;SDS011;6085;49.452;8.502;2022-09-03T18:17:14;5.18;;;3.85;;
12048;SDS011;6085;49.452;8.502;2022-09-03T18:21:27;3.80;;;3.50;;
12048;SDS011;6085;49.452;8.502;2022-09-03T18:25:53;3.88;;;3.47;;
12048;SDS011;6085;49.452;8.502;2022-09-03T18:30:14;4.07;;;3.67;;
12048;SDS011;6085;49.452;8.502;2022-09-03T18:34:35;3.38;;;3.10;;
12048;SDS011;6085;49.452;8.502;2022-09-03T18:38:57;3.75;;;3.45;;
12048;SDS011;6085;49.452;8.502;2022-09-03T18:43:27;3.78;;;3.47;;
12048;SDS011;6085;49.452;8.502;2022-09-03T18:47:59;4.47;;;4.07;;
12048;SDS011;6085;49.452;8.502;2022-09-03T18:52:26;4.57;;;4.13;;
12048;SDS011;6085;49.452;8.502;2022-09-03T18:56:54;4.47;;;4.18;;
12048;SDS011;6085;49.452;8.502;2022-09-03T19:01:17;4.53;;;4.22;;
12048;SDS011;6085;49.452;8.502;2022-09-03T19:05:47;5.40;;;5.00;;
12048;SDS011;6085;49.452;8.502;2022-09-03T19:10:18;5.57;;;5.07;;
12048;SDS011;6085;49.452;8.502;2022-09-03T19:14:47;4.93;;;4.53;;
12048;SDS011;6085;49.452;8.502;2022-09-03T19:19:25;5.40;;;4.90;;
12048;SDS011;6085;49.452;8.502;2022-09-03T19:24:05;5.25;;;4.82;;
12048;SDS011;6085;49.452;8.502;2022-09-03T19:28:25;5.85;;;5.32;;
12048;SDS011;6085;49.452;8.502;2022-09-03T19:32:53;5.70;;;5.20;;
12048;SDS011;6085;49.452;8.502;2022-09-03T19:37:20;5.65;;;5.15;;
12048;SDS011;6085;49.452;8.502;2022-09-03T19:41:43;6.60;;;6.00;;
12048;SDS011;6085;49.452;8.502;2022-09-03T19:46:09;6.80;;;6.20;;
12048;SDS011;6085;49.452;8.502;2022-09-03T19:50:37;6.00;;;5.40;;
12048;SDS011;6085;49.452;8.502;2022-09-03T19:55:02;6.72;;;6.13;;
12048;SDS011;6085;49.452;8.502;2022-09-03T19:59:22;6.00;;;5.50;;
12048;SDS011;6085;49.452;8.502;2022-09-03T20:03:45;6.43;;;5.78;;
12048;SDS011;6085;49.452;8.502;2022-09-03T20:08:05;6.07;;;5.47;;
12048;SDS011;6085;49.452;8.502;2022-09-03T20:12:26;5.72;;;5.22;;
12048;SDS011;6085;49.452;8.502;2022-09-03T20:16:34;5.97;;;5.47;;
12048;SDS011;6085;49.452;8.502;2022-09-03T20:20:45;6.65;;;6.05;;
12048;SDS011;6085;49.452;8.502;2022-09-03T20:24:57;6.28;;;5.70;;
12048;SDS011;6085;49.452;8.502;2022-09-03T20:29:18;7.20;;;6.55;;
12048;SDS011;6085;49.452;8.502;2022-09-03T20:33:37;8.23;;;7.43;;
12048;SDS011;6085;49.452;8.502;2022-09-03T20:37:48;6.43;;;5.90;;
12048;SDS011;6085;49.452;8.502;2022-09-03T20:41:59;6.93;;;6.25;;
12048;SDS011;6085;49.452;8.502;2022-09-03T20:46:21;6.90;;;6.30;;
12048;SDS011;6085;49.452;8.502;2022-09-03T20:50:45;7.30;;;6.60;;
12048;SDS011;6085;49.452;8.502;2022-09-03T20:54:55;8.02;;;7.22;;
12048;SDS011;6085;49.452;8.502;2022-09-03T20:59:10;7.00;;;6.30;;
12048;SDS011;6085;49.452;8.502;2022-09-03T21:03:18;6.53;;;5.93;;
12048;SDS011;6085;49.452;8.502;2022-09-03T21:07:28;6.65;;;6.05;;
12048;SDS011;6085;49.452;8.502;2022-09-03T21:11:39;7.70;;;6.90;;
12048;SDS011;6085;49.452;8.502;2022-09-03T21:15:52;6.82;;;6.13;;
12048;SDS011;6085;49.452;8.502;2022-09-03T21:24:23;6.90;;;6.30;;
12048;SDS011;6085;49.452;8.502;2022-09-03T21:28:30;7.55;;;6.85;;
12048;SDS011;6085;49.452;8.502;2022-09-03T21:32:39;8.15;;;7.38;;
12048;SDS011;6085;49.452;8.502;2022-09-03T21:36:47;7.18;;;6.47;;
12048;SDS011;6085;49.452;8.502;2022-09-03T21:40:51;6.97;;;6.35;;
12048;SDS011;6085;49.452;8.502;2022-09-03T21:44:57;8.82;;;7.10;;
12048;SDS011;6085;49.452;8.502;2022-09-03T21:49:06;8.23;;;7.03;;
12048;SDS011;6085;49.452;8.502;2022-09-03T21:53:11;6.93;;;6.00;;
12048;SDS011;6085;49.452;8.502;2022-09-03T21:57:18;6.50;;;5.93;;
12048;SDS011;6085;49.452;8.502;2022-09-03T22:01:27;6.93;;;6.05;;
12048;SDS011;6085;49.452;8.502;2022-09-03T22:05:36;7.72;;;7.03;;
12048;SDS011;6085;49.452;8.502;2022-09-03T22:09:48;10.32;;;9.23;;
12048;SDS011;6085;49.452;8.502;2022-09-03T22:13:58;10.90;;;9.80;;
12048;SDS011;6085;49.452;8.502;2022-09-03T22:18:06;16.20;;;14.48;;
12048;SDS011;6085;49.452;8.502;2022-09-03T22:22:18;14.40;;;12.90;;
12048;SDS011;6085;49.452;8.502;2022-09-03T22:26:28;12.23;;;10.93;;
12048;SDS011;6085;49.452;8.502;2022-09-03T22:30:39;13.15;;;11.70;;
12048;SDS011;6085;49.452;8.502;2022-09-03T22:34:49;12.60;;;10.45;;
12048;SDS011;6085;49.452;8.502;2022-09-03T22:39:09;13.23;;;11.18;;
12048;SDS011;6085;49.452;8.502;2022-09-03T22:43:32;11.27;;;9.88;;
12048;SDS011;6085;49.452;8.502;2022-09-03T22:47:39;12.13;;;10.88;;
12048;SDS011;6085;49.452;8.502;2022-09-03T22:51:52;10.52;;;9.48;;
12048;SDS011;6085;49.452;8.502;2022-09-03T22:56:04;9.90;;;8.90;;
12048;SDS011;6085;49.452;8.502;2022-09-03T23:00:08;9.52;;;8.52;;
12048;SDS011;6085;49.452;8.502;2022-09-03T23:04:13;10.57;;;9.32;;
12048;SDS011;6085;49.452;8.502;2022-09-03T23:08:22;9.73;;;8.73;;
12048;SDS011;6085;49.452;8.502;2022-09-03T23:12:32;8.57;;;7.78;;
12048;SDS011;6085;49.452;8.502;2022-09-03T23:16:39;8.60;;;7.70;;
12048;SDS011;6085;49.452;8.502;2022-09-03T23:20:47;7.82;;;7.03;;
12048;SDS011;6085;49.452;8.502;2022-09-03T23:24:57;8.45;;;7.55;;
12048;SDS011;6085;49.452;8.502;2022-09-03T23:29:05;7.82;;;7.05;;
12048;SDS011;6085;49.452;8.502;2022-09-03T23:33:11;7.35;;;6.65;;
12048;SDS011;6085;49.452;8.502;2022-09-03T23:37:16;7.60;;;6.90;;
12048;SDS011;6085;49.452;8.502;2022-09-03T23:41:26;8.00;;;6.88;;
12048;SDS011;6085;49.452;8.502;2022-09-03T23:45:39;9.63;;;7.07;;
12048;SDS011;6085;49.452;8.502;2022-09-03T23:49:47;7.80;;;6.95;;
12048;SDS011;6085;49.452;8.502;2022-09-03T23:54:02;6.90;;;6.15;;
12048;SDS011;6085;49.452;8.502;2022-09-03T23:58:15;6.80;;;6.10;;
